createdAt,value
2018-03-28T00:01:22.000Z,5.60
2018-03-28T00:03:49.441Z,4.83
2018-03-28T00:06:16.877Z,4.57
2018-03-28T00:08:44.329Z,4.10
2018-03-28T00:11:12.547Z,3.77
2018-03-28T00:13:40.022Z,3.10
2018-03-28T00:16:07.460Z,4.80
2018-03-28T00:18:34.885Z,3.37
2018-03-28T00:21:02.357Z,3.27
2018-03-28T00:23:29.978Z,4.17
2018-03-28T00:25:57.436Z,3.83
2018-03-28T00:28:24.865Z,3.97
2018-03-28T00:30:52.314Z,2.80
2018-03-28T00:33:19.792Z,3.90
2018-03-28T00:35:47.216Z,3.97
2018-03-28T00:38:14.664Z,3.80
2018-03-28T00:40:42.191Z,5.17
2018-03-28T00:43:09.631Z,3.80
2018-03-28T00:45:37.155Z,4.17
2018-03-28T00:48:04.590Z,4.20
2018-03-28T00:50:32.107Z,4.77
2018-03-28T00:52:59.562Z,3.90
2018-03-28T00:55:27.013Z,4.93
2018-03-28T00:57:54.462Z,5.00
2018-03-28T01:00:21.891Z,3.90
2018-03-28T01:02:49.333Z,5.20
2018-03-28T01:05:16.770Z,4.10
2018-03-28T01:07:44.202Z,5.27
2018-03-28T01:10:11.649Z,4.27
2018-03-28T01:12:39.100Z,5.07
2018-03-28T01:15:06.612Z,4.30
2018-03-28T01:17:34.003Z,4.13
2018-03-28T01:20:01.431Z,3.20
2018-03-28T01:22:28.906Z,5.33
2018-03-28T01:24:59.447Z,4.40
2018-03-28T01:27:26.886Z,5.20
2018-03-28T01:29:54.341Z,3.90
2018-03-28T01:32:21.800Z,4.47
2018-03-28T01:34:50.017Z,4.40
2018-03-28T01:37:17.446Z,3.60
2018-03-28T01:39:44.916Z,4.70
2018-03-28T01:42:12.588Z,4.30
2018-03-28T01:44:40.016Z,4.07
2018-03-28T01:47:07.476Z,4.17
2018-03-28T01:49:36.842Z,4.63
2018-03-28T01:52:05.036Z,4.87
2018-03-28T01:54:32.498Z,6.50
2018-03-28T01:56:59.941Z,3.60
2018-03-28T01:59:27.389Z,4.77
2018-03-28T02:01:54.843Z,3.77
2018-03-28T02:04:22.299Z,5.50
2018-03-28T02:06:49.757Z,5.27
2018-03-28T02:09:17.195Z,4.70
2018-03-28T02:11:44.667Z,5.50
2018-03-28T02:14:12.115Z,4.73
2018-03-28T02:16:39.568Z,5.63
2018-03-28T02:19:07.005Z,4.67
2018-03-28T02:21:34.458Z,3.73
2018-03-28T02:24:01.906Z,4.77
2018-03-28T02:26:29.346Z,3.93
2018-03-28T02:28:56.769Z,4.17
2018-03-28T02:31:25.014Z,5.97
2018-03-28T02:33:52.590Z,6.03
2018-03-28T02:36:20.058Z,5.20
2018-03-28T02:38:47.502Z,6.00
2018-03-28T02:41:14.942Z,4.70
2018-03-28T02:43:42.405Z,3.17
2018-03-28T02:46:09.830Z,6.70
2018-03-28T02:48:37.432Z,4.57
2018-03-28T02:51:04.873Z,5.80
2018-03-28T02:53:32.302Z,4.30
2018-03-28T02:56:00.523Z,4.87
2018-03-28T02:58:27.961Z,5.70
2018-03-28T03:00:55.396Z,4.80
2018-03-28T03:03:23.598Z,5.53
2018-03-28T03:05:51.048Z,4.90
2018-03-28T03:08:19.270Z,6.17
2018-03-28T03:10:46.707Z,3.43
2018-03-28T03:13:14.172Z,5.87
2018-03-28T03:15:41.633Z,5.73
2018-03-28T03:18:09.327Z,3.73
2018-03-28T03:20:36.776Z,5.87
2018-03-28T03:23:04.210Z,3.20
2018-03-28T03:25:31.667Z,4.73
2018-03-28T03:27:59.109Z,7.20
2018-03-28T03:30:26.738Z,4.70
2018-03-28T03:32:55.733Z,5.50
2018-03-28T03:35:23.367Z,5.43
2018-03-28T03:37:50.820Z,5.70
2018-03-28T03:40:18.263Z,4.53
2018-03-28T03:42:45.890Z,5.37
2018-03-28T03:45:13.341Z,4.40
2018-03-28T03:47:40.782Z,4.47
2018-03-28T03:50:08.255Z,5.77
2018-03-28T03:52:35.701Z,4.00
2018-03-28T03:55:03.141Z,4.90
2018-03-28T03:57:30.932Z,5.37
2018-03-28T03:59:58.364Z,4.30
2018-03-28T04:02:25.813Z,5.40
2018-03-28T04:04:53.259Z,3.07
2018-03-28T04:07:20.701Z,3.50
2018-03-28T04:09:48.175Z,5.30
2018-03-28T04:12:15.606Z,3.53
2018-03-28T04:14:43.059Z,3.80
2018-03-28T04:17:10.493Z,3.37
2018-03-28T04:19:37.948Z,2.20
2018-03-28T04:22:05.389Z,2.93
2018-03-28T04:24:32.832Z,3.20
2018-03-28T04:27:00.277Z,3.70
2018-03-28T04:29:27.845Z,3.40
2018-03-28T04:31:55.293Z,3.63
2018-03-28T04:34:22.764Z,2.80
2018-03-28T04:36:50.200Z,3.60
2018-03-28T04:39:17.644Z,2.13
2018-03-28T04:41:45.082Z,2.90
2018-03-28T04:44:12.518Z,3.03
2018-03-28T04:46:39.973Z,1.87
2018-03-28T04:49:07.412Z,2.73
2018-03-28T04:51:34.872Z,3.23
2018-03-28T04:54:02.511Z,2.37
2018-03-28T04:56:30.206Z,2.87
2018-03-28T04:58:57.828Z,3.33
2018-03-28T05:01:25.280Z,3.10
2018-03-28T05:03:52.725Z,2.50
2018-03-28T05:06:20.158Z,1.70
2018-03-28T05:08:47.636Z,1.80
2018-03-28T05:11:15.101Z,1.80
2018-03-28T05:13:42.538Z,2.60
2018-03-28T05:16:09.989Z,1.47
2018-03-28T05:18:37.428Z,1.90
2018-03-28T05:21:04.866Z,1.73
2018-03-28T05:23:32.320Z,1.73
2018-03-28T05:26:01.267Z,3.03
2018-03-28T05:28:28.708Z,1.83
2018-03-28T05:30:56.149Z,2.13
2018-03-28T05:33:23.598Z,2.00
2018-03-28T05:35:51.041Z,1.73
2018-03-28T05:38:18.477Z,2.10
2018-03-28T05:40:45.956Z,1.97
2018-03-28T05:43:13.394Z,2.30
2018-03-28T05:45:40.837Z,1.50
2018-03-28T05:48:08.299Z,2.30
2018-03-28T05:50:35.730Z,1.90
2018-03-28T05:53:03.183Z,2.50
2018-03-28T05:55:30.635Z,1.63
2018-03-28T05:57:58.077Z,2.10
2018-03-28T06:00:25.517Z,2.03
2018-03-28T06:02:53.623Z,1.40
2018-03-28T06:05:21.082Z,2.30
2018-03-28T06:07:48.533Z,1.80
2018-03-28T06:10:15.977Z,1.43
2018-03-28T06:12:43.443Z,1.50
2018-03-28T06:15:11.106Z,1.60
2018-03-28T06:17:38.553Z,1.63
2018-03-28T06:20:06.075Z,1.60
2018-03-28T06:22:33.518Z,2.50
2018-03-28T06:25:00.969Z,1.90
2018-03-28T06:27:28.409Z,1.43
2018-03-28T06:29:55.837Z,2.27
2018-03-28T06:32:23.289Z,1.37
2018-03-28T06:34:51.481Z,1.80
2018-03-28T06:37:18.945Z,2.33
2018-03-28T06:39:46.386Z,2.80
2018-03-28T06:42:14.818Z,1.10
2018-03-28T06:44:42.385Z,1.67
2018-03-28T06:47:09.824Z,1.73
2018-03-28T06:49:37.286Z,1.20
2018-03-28T06:52:04.732Z,1.57
2018-03-28T06:54:32.166Z,1.97
2018-03-28T06:56:59.838Z,2.73
2018-03-28T06:59:27.287Z,2.27
2018-03-28T07:01:54.739Z,1.57
2018-03-28T07:04:22.170Z,1.50
2018-03-28T07:06:49.611Z,1.30
2018-03-28T07:09:17.053Z,2.20
2018-03-28T07:11:44.715Z,2.73
2018-03-28T07:14:12.185Z,1.73
2018-03-28T07:16:39.622Z,2.07
2018-03-28T07:19:07.052Z,1.50
2018-03-28T07:21:34.518Z,2.03
2018-03-28T07:24:02.333Z,1.30
2018-03-28T07:26:33.213Z,2.10
2018-03-28T07:29:00.636Z,1.70
2018-03-28T07:31:28.169Z,1.40
2018-03-28T07:33:55.617Z,1.63
2018-03-28T07:36:23.049Z,1.43
2018-03-28T07:38:50.511Z,1.63
2018-03-28T07:41:17.982Z,1.97
2018-03-28T07:43:45.418Z,1.83
2018-03-28T07:46:12.861Z,1.50
2018-03-28T07:48:40.316Z,2.13
2018-03-28T07:51:07.778Z,3.30
2018-03-28T07:53:36.203Z,2.67
2018-03-28T07:56:03.651Z,3.17
2018-03-28T07:58:31.328Z,2.20
2018-03-28T08:00:58.709Z,2.57
2018-03-28T08:03:26.156Z,2.00
2018-03-28T08:05:53.846Z,2.90
2018-03-28T08:08:21.290Z,2.20
2018-03-28T08:10:48.848Z,1.90
2018-03-28T08:13:16.259Z,1.97
2018-03-28T08:15:43.713Z,2.00
2018-03-28T08:18:11.363Z,1.73
2018-03-28T08:20:38.817Z,1.93
2018-03-28T08:23:06.277Z,1.20
2018-03-28T08:25:33.724Z,1.63
2018-03-28T08:28:01.184Z,2.03
2018-03-28T08:30:28.635Z,2.80
2018-03-28T08:32:58.343Z,1.77
2018-03-28T08:35:26.132Z,3.00
2018-03-28T08:37:53.566Z,1.90
2018-03-28T08:40:21.299Z,2.20
2018-03-28T08:42:48.738Z,2.20
2018-03-28T08:45:16.178Z,3.53
2018-03-28T08:47:43.625Z,3.97
2018-03-28T08:50:11.084Z,1.63
2018-03-28T08:52:38.537Z,1.73
2018-03-28T08:55:06.154Z,2.20
2018-03-28T08:57:33.610Z,2.93
2018-03-28T09:00:01.054Z,3.10
2018-03-28T09:02:28.494Z,2.97
2018-03-28T09:04:57.072Z,2.13
2018-03-28T09:07:24.509Z,3.10
2018-03-28T09:09:51.951Z,3.03
2018-03-28T09:12:19.401Z,3.10
2018-03-28T09:14:46.840Z,2.50
2018-03-28T09:17:14.287Z,2.17
2018-03-28T09:19:41.721Z,2.20
2018-03-28T09:22:09.170Z,2.63
2018-03-28T09:24:36.617Z,2.53
2018-03-28T09:27:04.275Z,2.77
2018-03-28T09:29:31.733Z,2.60
2018-03-28T09:31:59.168Z,2.53
2018-03-28T09:34:26.612Z,2.60
2018-03-28T09:36:54.077Z,3.87
2018-03-28T09:39:21.516Z,2.73
2018-03-28T09:41:48.970Z,2.73
2018-03-28T09:44:16.413Z,2.57
2018-03-28T09:46:43.866Z,1.80
2018-03-28T09:49:11.324Z,2.10
2018-03-28T09:51:38.803Z,3.57
2018-03-28T09:54:06.251Z,2.50
2018-03-28T09:56:33.713Z,2.87
2018-03-28T09:59:01.251Z,2.90
2018-03-28T10:01:30.557Z,2.67
2018-03-28T10:04:03.572Z,3.10
2018-03-28T10:06:31.043Z,3.10
2018-03-28T10:08:58.473Z,3.17
2018-03-28T10:11:25.931Z,2.77
2018-03-28T10:13:53.587Z,2.87
2018-03-28T10:16:21.033Z,2.27
2018-03-28T10:18:48.481Z,3.37
2018-03-28T10:21:15.950Z,3.03
2018-03-28T10:23:43.460Z,1.80
2018-03-28T10:26:11.206Z,2.43
2018-03-28T10:28:39.491Z,2.70
2018-03-28T10:31:06.933Z,3.53
2018-03-28T10:33:34.385Z,3.73
2018-03-28T10:36:01.836Z,1.87
2018-03-28T10:38:29.293Z,3.27
2018-03-28T10:40:56.737Z,3.27
2018-03-28T10:43:24.171Z,2.97
2018-03-28T10:45:51.619Z,3.53
2018-03-28T10:48:19.066Z,2.60
2018-03-28T10:50:46.526Z,4.77
2018-03-28T10:53:13.982Z,5.37
2018-03-28T10:55:41.426Z,5.33
2018-03-28T10:58:08.873Z,5.93
2018-03-28T11:00:36.324Z,4.03
2018-03-28T11:03:03.775Z,4.67
2018-03-28T11:05:31.215Z,4.20
2018-03-28T11:07:58.650Z,4.50
2018-03-28T11:10:26.419Z,6.50
2018-03-28T11:12:53.866Z,5.07
2018-03-28T11:15:21.313Z,5.23
2018-03-28T11:17:48.747Z,5.83
2018-03-28T11:20:16.192Z,4.20
2018-03-28T11:22:43.649Z,5.17
2018-03-28T11:25:11.083Z,3.53
2018-03-28T11:27:38.522Z,2.57
2018-03-28T11:30:05.969Z,3.40
2018-03-28T11:32:33.458Z,3.00
2018-03-28T11:35:00.858Z,3.03
2018-03-28T11:37:28.294Z,2.90
2018-03-28T11:39:55.746Z,1.90
2018-03-28T11:42:23.185Z,2.30
2018-03-28T11:44:50.688Z,3.23
2018-03-28T11:47:18.449Z,2.43
2018-03-28T11:49:46.005Z,2.93
2018-03-28T11:52:14.468Z,2.90
2018-03-28T11:54:41.901Z,3.03
2018-03-28T11:57:10.121Z,3.37
2018-03-28T11:59:37.573Z,2.60
2018-03-28T12:02:05.008Z,3.40
2018-03-28T12:04:32.518Z,2.67
2018-03-28T12:06:59.959Z,2.20
2018-03-28T12:09:27.405Z,3.10
2018-03-28T12:11:54.862Z,3.27
2018-03-28T12:14:22.302Z,3.30
2018-03-28T12:16:49.759Z,2.53
2018-03-28T12:19:17.959Z,3.07
2018-03-28T12:21:46.166Z,1.83
2018-03-28T12:24:13.757Z,4.07
2018-03-28T12:26:41.197Z,2.47
2018-03-28T12:29:08.681Z,1.73
2018-03-28T12:31:36.151Z,3.23
2018-03-28T12:34:03.604Z,2.20
2018-03-28T12:36:33.876Z,2.47
2018-03-28T12:39:01.556Z,2.40
2018-03-28T12:41:29.053Z,3.30
2018-03-28T12:43:56.498Z,2.93
2018-03-28T12:46:23.949Z,2.80
2018-03-28T12:48:52.860Z,2.30
2018-03-28T12:51:20.315Z,1.90
2018-03-28T12:53:47.760Z,1.50
2018-03-28T12:56:15.197Z,1.93
2018-03-28T12:58:42.684Z,1.70
2018-03-28T13:01:10.180Z,3.00
2018-03-28T13:03:37.627Z,1.77
2018-03-28T13:06:05.112Z,2.53
2018-03-28T13:08:32.570Z,2.33
2018-03-28T13:11:00.041Z,2.20
2018-03-28T13:13:27.493Z,1.90
2018-03-28T13:15:54.931Z,3.10
2018-03-28T13:18:22.384Z,2.00
2018-03-28T13:20:49.822Z,1.60
2018-03-28T13:23:17.275Z,1.60
2018-03-28T13:25:44.714Z,2.70
2018-03-28T13:28:12.928Z,2.70
2018-03-28T13:30:40.383Z,2.77
2018-03-28T13:33:07.839Z,2.00
2018-03-28T13:35:35.286Z,1.90
2018-03-28T13:38:02.739Z,3.63
2018-03-28T13:40:30.173Z,2.47
2018-03-28T13:42:57.629Z,1.80
2018-03-28T13:45:25.065Z,2.40
2018-03-28T13:47:52.508Z,2.13
2018-03-28T13:50:20.237Z,2.07
2018-03-28T13:52:47.685Z,3.40
2018-03-28T13:55:15.131Z,2.40
2018-03-28T13:57:42.565Z,1.63
2018-03-28T14:00:10.022Z,1.83
2018-03-28T14:02:37.454Z,2.90
2018-03-28T14:05:04.889Z,2.10
2018-03-28T14:07:32.341Z,2.50
2018-03-28T14:09:59.897Z,3.23
2018-03-28T14:12:27.349Z,3.77
2018-03-28T14:14:54.787Z,2.60
2018-03-28T14:17:22.217Z,2.10
2018-03-28T14:19:49.694Z,2.00
2018-03-28T14:22:17.159Z,3.20
2018-03-28T14:24:44.630Z,2.47
2018-03-28T14:27:12.029Z,2.47
2018-03-28T14:29:39.604Z,2.10
2018-03-28T14:32:07.082Z,1.80
2018-03-28T14:34:34.528Z,1.80
2018-03-28T14:37:02.009Z,3.10
2018-03-28T14:39:29.648Z,1.83
2018-03-28T14:41:57.085Z,1.70
2018-03-28T14:44:24.653Z,2.00
2018-03-28T14:46:52.086Z,2.57
2018-03-28T14:49:19.546Z,2.00
2018-03-28T14:51:46.978Z,3.20
2018-03-28T14:54:14.440Z,2.00
2018-03-28T14:56:41.893Z,2.20
2018-03-28T14:59:09.342Z,1.60
2018-03-28T15:01:36.824Z,2.60
2018-03-28T15:04:04.350Z,2.90
2018-03-28T15:06:31.778Z,1.77
2018-03-28T15:08:59.232Z,1.70
2018-03-28T15:11:26.868Z,3.10
2018-03-28T15:13:54.312Z,3.13
2018-03-28T15:16:21.792Z,2.70
2018-03-28T15:18:49.197Z,1.73
2018-03-28T15:21:16.897Z,3.20
2018-03-28T15:23:44.340Z,1.87
2018-03-28T15:26:11.784Z,1.90
2018-03-28T15:28:39.349Z,2.77
2018-03-28T15:31:06.785Z,2.20
2018-03-28T15:33:34.225Z,2.00
2018-03-28T15:36:01.672Z,2.77
2018-03-28T15:38:29.118Z,2.00
2018-03-28T15:40:56.575Z,1.60
2018-03-28T15:43:24.046Z,1.80
2018-03-28T15:45:51.902Z,2.17
2018-03-28T15:48:19.342Z,2.00
2018-03-28T15:50:46.795Z,2.60
2018-03-28T15:53:14.302Z,1.93
2018-03-28T15:55:41.729Z,2.40
2018-03-28T15:58:09.195Z,2.37
2018-03-28T16:00:36.637Z,3.07
2018-03-28T16:03:04.066Z,2.50
2018-03-28T16:05:32.277Z,1.50
2018-03-28T16:08:06.551Z,2.70
2018-03-28T16:10:34.010Z,2.20
2018-03-28T16:13:01.549Z,2.83
2018-03-28T16:15:29.008Z,2.80
2018-03-28T16:18:06.210Z,2.03
2018-03-28T16:20:38.307Z,2.87
2018-03-28T16:23:05.857Z,2.10
2018-03-28T16:25:33.290Z,3.17
2018-03-28T16:28:00.772Z,1.77
2018-03-28T16:30:28.213Z,2.37
2018-03-28T16:33:00.886Z,2.47
2018-03-28T16:35:28.349Z,2.57
2018-03-28T16:37:55.768Z,2.10
2018-03-28T16:40:23.210Z,2.20
2018-03-28T16:42:50.672Z,3.47
2018-03-28T16:45:18.122Z,2.43
2018-03-28T16:47:45.581Z,1.97
2018-03-28T16:50:13.010Z,1.80
2018-03-28T16:52:40.441Z,3.20
2018-03-28T16:55:08.693Z,2.00
2018-03-28T16:57:36.114Z,1.90
2018-03-28T17:00:03.566Z,2.40
2018-03-28T17:02:31.009Z,1.73
2018-03-28T17:04:59.230Z,2.00
2018-03-28T17:07:26.671Z,2.30
2018-03-28T17:09:54.111Z,2.37
2018-03-28T17:12:21.610Z,2.67
2018-03-28T17:14:49.043Z,2.10
2018-03-28T17:17:16.494Z,1.97
2018-03-28T17:19:43.942Z,2.07
2018-03-28T17:22:11.393Z,2.60
2018-03-28T17:24:39.622Z,3.50
2018-03-28T17:27:07.052Z,1.63
2018-03-28T17:29:34.865Z,1.53
2018-03-28T17:32:02.331Z,1.50
2018-03-28T17:34:29.793Z,1.60
2018-03-28T17:36:57.245Z,1.37
2018-03-28T17:39:24.702Z,2.13
2018-03-28T17:41:52.285Z,1.90
2018-03-28T17:44:19.765Z,1.60
2018-03-28T17:46:47.201Z,2.13
2018-03-28T17:49:14.749Z,1.10
2018-03-28T17:51:42.384Z,1.43
2018-03-28T17:54:09.820Z,1.43
2018-03-28T17:56:37.277Z,1.47
2018-03-28T17:59:04.721Z,1.70
2018-03-28T18:01:32.206Z,1.93
2018-03-28T18:03:59.641Z,1.87
2018-03-28T18:06:27.263Z,1.60
2018-03-28T18:08:54.736Z,1.77
2018-03-28T18:11:22.198Z,2.00
2018-03-28T18:13:49.645Z,2.07
2018-03-28T18:16:17.154Z,1.70
2018-03-28T18:18:44.542Z,1.77
2018-03-28T18:21:12.201Z,1.47
2018-03-28T18:23:40.410Z,1.90
2018-03-28T18:26:08.007Z,1.87
2018-03-28T18:28:35.454Z,2.03
2018-03-28T18:31:02.908Z,1.60
2018-03-28T18:33:30.361Z,1.77
2018-03-28T18:35:57.803Z,2.07
2018-03-28T18:38:25.241Z,2.40
2018-03-28T18:40:52.902Z,2.03
2018-03-28T18:43:20.438Z,2.10
2018-03-28T18:45:47.874Z,2.20
2018-03-28T18:48:15.351Z,2.70
2018-03-28T18:50:42.785Z,1.77
2018-03-28T18:53:10.233Z,2.50
2018-03-28T18:55:37.678Z,2.03
2018-03-28T18:58:05.100Z,2.30
2018-03-28T19:00:32.556Z,1.77
2018-03-28T19:03:03.813Z,2.40
2018-03-28T19:05:31.282Z,2.37
2018-03-28T19:07:58.719Z,3.30
2018-03-28T19:10:26.159Z,3.13
2018-03-28T19:12:53.622Z,3.00
2018-03-28T19:15:21.077Z,2.77
2018-03-28T19:17:49.298Z,2.80
2018-03-28T19:20:16.741Z,1.60
2018-03-28T19:22:44.178Z,1.83
2018-03-28T19:25:11.636Z,2.40
2018-03-28T19:27:39.084Z,2.70
2018-03-28T19:30:06.548Z,2.70
2018-03-28T19:32:34.006Z,3.40
2018-03-28T19:35:02.218Z,3.23
2018-03-28T19:37:29.677Z,2.93
2018-03-28T19:39:57.109Z,3.10
2018-03-28T19:42:24.556Z,2.83
2018-03-28T19:44:52.011Z,3.40
2018-03-28T19:47:19.456Z,2.27
2018-03-28T19:49:46.904Z,2.10
2018-03-28T19:52:14.469Z,1.20
2018-03-28T19:54:41.915Z,1.00
2018-03-28T19:57:09.374Z,1.17
2018-03-28T19:59:36.797Z,2.67
2018-03-28T20:02:04.254Z,1.27
2018-03-28T20:04:32.470Z,0.60
2018-03-28T20:06:59.893Z,2.03
2018-03-28T20:09:27.342Z,0.63
2018-03-28T20:11:54.806Z,1.00
2018-03-28T20:14:22.652Z,0.80
2018-03-28T20:16:50.105Z,1.10
2018-03-28T20:19:17.547Z,0.73
2018-03-28T20:21:45.019Z,0.70
2018-03-28T20:24:12.459Z,0.70
2018-03-28T20:26:39.913Z,0.80
2018-03-28T20:29:07.361Z,0.80
2018-03-28T20:31:35.577Z,0.50
2018-03-28T20:34:03.019Z,0.83
2018-03-28T20:36:30.633Z,0.80
2018-03-28T20:38:58.085Z,0.67
2018-03-28T20:41:25.571Z,0.70
2018-03-28T20:43:53.011Z,0.97
2018-03-28T20:46:20.465Z,0.80
2018-03-28T20:48:47.900Z,0.90
2018-03-28T20:51:15.369Z,1.50
2018-03-28T20:53:42.803Z,0.73
2018-03-28T20:56:10.245Z,0.97
2018-03-28T20:58:37.690Z,1.00
2018-03-28T21:01:05.512Z,0.80
2018-03-28T21:03:32.963Z,0.73
2018-03-28T21:06:00.436Z,1.20
2018-03-28T21:08:27.985Z,0.60
2018-03-28T21:10:55.446Z,1.20
2018-03-28T21:13:22.875Z,0.80
2018-03-28T21:15:50.717Z,0.80
2018-03-28T21:18:18.182Z,0.57
2018-03-28T21:20:45.617Z,1.53
2018-03-28T21:23:13.072Z,1.20
2018-03-28T21:25:40.865Z,1.63
2018-03-28T21:28:08.313Z,1.10
2018-03-28T21:30:35.745Z,0.80
2018-03-28T21:33:03.986Z,1.50
2018-03-28T21:35:31.453Z,1.43
2018-03-28T21:37:58.876Z,1.60
2018-03-28T21:40:26.337Z,1.47
2018-03-28T21:42:53.764Z,1.47
2018-03-28T21:45:21.224Z,1.17
2018-03-28T21:47:48.745Z,1.20
2018-03-28T21:50:16.195Z,1.70
2018-03-28T21:52:43.658Z,2.70
2018-03-28T21:55:11.094Z,1.90
2018-03-28T21:57:38.529Z,1.40
2018-03-28T22:00:06.004Z,1.90
2018-03-28T22:02:33.438Z,1.30
2018-03-28T22:05:00.943Z,1.57
2018-03-28T22:07:28.374Z,2.00
2018-03-28T22:09:55.806Z,1.50
2018-03-28T22:12:23.266Z,1.97
2018-03-28T22:14:50.698Z,1.30
2018-03-28T22:17:18.146Z,1.53
2018-03-28T22:19:45.594Z,1.47
2018-03-28T22:22:13.060Z,2.07
2018-03-28T22:24:40.532Z,1.77
2018-03-28T22:27:07.997Z,1.37
2018-03-28T22:29:35.467Z,1.50
2018-03-28T22:32:02.939Z,1.90
2018-03-28T22:34:30.607Z,1.33
2018-03-28T22:36:58.047Z,1.07
2018-03-28T22:39:25.477Z,1.57
2018-03-28T22:41:52.952Z,1.90
2018-03-28T22:44:20.404Z,1.73
2018-03-28T22:46:47.852Z,1.40
2018-03-28T22:49:15.486Z,1.13
2018-03-28T22:51:43.004Z,2.13
2018-03-28T22:54:10.465Z,1.67
2018-03-28T22:56:37.912Z,1.50
2018-03-28T22:59:05.348Z,2.30
2018-03-28T23:01:32.830Z,2.20
2018-03-28T23:04:00.273Z,2.67
2018-03-28T23:06:27.746Z,3.00
2018-03-28T23:08:55.166Z,1.77
2018-03-28T23:11:22.626Z,2.60
2018-03-28T23:13:50.308Z,1.93
2018-03-28T23:16:17.741Z,2.13
2018-03-28T23:18:45.209Z,2.43
2018-03-28T23:21:12.872Z,2.67
2018-03-28T23:23:40.316Z,2.27
2018-03-28T23:26:07.776Z,2.87
2018-03-28T23:28:35.207Z,2.80
2018-03-28T23:31:02.670Z,3.17
2018-03-28T23:33:30.106Z,2.13
2018-03-28T23:35:58.324Z,2.27
2018-03-28T23:38:26.015Z,3.40
2018-03-28T23:40:53.480Z,2.80
2018-03-28T23:43:20.947Z,1.60
2018-03-28T23:45:48.380Z,2.43
2018-03-28T23:48:15.821Z,1.87
2018-03-28T23:50:43.277Z,2.43
2018-03-28T23:53:10.727Z,2.40
2018-03-28T23:55:38.936Z,2.10
2018-03-28T23:58:06.366Z,1.13
